createdAt,value
2023-02-21T00:01:48.559Z,99887.81
2023-02-21T00:04:34.050Z,99883.47
2023-02-21T00:07:19.503Z,99871.22
2023-02-21T00:10:04.949Z,99865.50
2023-02-21T00:12:50.216Z,99865.22
2023-02-21T00:15:35.664Z,99858.41
2023-02-21T00:18:21.060Z,99866.84
2023-02-21T00:21:06.044Z,99860.31
2023-02-21T00:23:55.343Z,99868.22
2023-02-21T00:26:41.347Z,99858.69
2023-02-21T00:29:27.343Z,99868.47
2023-02-21T00:32:13.242Z,99857.59
2023-02-21T00:34:58.276Z,99863.31
2023-02-21T00:37:43.762Z,99868.22
2023-02-21T00:40:33.156Z,99870.38
2023-02-21T00:43:18.768Z,99875.28
2023-02-21T00:46:04.220Z,99871.47
2023-02-21T00:48:49.620Z,99880.16
2023-02-21T00:51:35.365Z,99871.97
2023-02-21T00:54:20.897Z,99869.81
2023-02-21T00:57:05.582Z,99860.72
2023-02-21T00:59:51.033Z,99857.75
2023-02-21T01:02:36.358Z,99857.47
2023-02-21T01:05:21.665Z,99860.38
2023-02-21T01:08:07.157Z,99851.34
2023-02-21T01:10:52.563Z,99841.59
2023-02-21T01:13:37.475Z,99836.16
2023-02-21T01:16:26.137Z,99845.31
2023-02-21T01:19:11.505Z,99839.38
2023-02-21T01:21:57.053Z,99843.41
2023-02-21T01:24:42.366Z,99840.22
2023-02-21T01:27:27.895Z,99848.69
2023-02-21T01:30:12.986Z,99846.50
2023-02-21T01:32:57.953Z,99852.66
2023-02-21T01:35:43.591Z,99853.19
2023-02-21T01:38:28.984Z,99855.59
2023-02-21T01:41:14.307Z,99851.00
2023-02-21T01:44:26.075Z,99848.53
2023-02-21T01:47:11.524Z,99844.78
2023-02-21T01:50:02.294Z,99840.19
2023-02-21T01:52:47.383Z,99844.50
2023-02-21T01:55:33.134Z,99846.66
2023-02-21T01:58:18.354Z,99841.66
2023-02-21T02:01:03.665Z,99833.78
2023-02-21T02:03:49.597Z,99819.38
2023-02-21T02:06:36.342Z,99812.56
2023-02-21T02:09:36.272Z,99809.13
2023-02-21T02:12:23.898Z,99823.88
2023-02-21T02:15:21.163Z,99814.34
2023-02-21T02:18:07.210Z,99812.00
2023-02-21T02:21:15.997Z,99810.03
2023-02-21T02:24:10.795Z,99813.38
2023-02-21T02:27:11.617Z,99816.34
2023-02-21T02:30:03.413Z,99807.06
2023-02-21T02:32:51.095Z,99813.75
2023-02-21T02:35:30.398Z,99806.12
2023-02-21T02:38:08.844Z,99804.63
2023-02-21T02:41:06.400Z,99808.16
2023-02-21T02:43:42.128Z,99802.72
2023-02-21T02:46:16.568Z,99796.19
2023-02-21T02:48:44.583Z,99797.56
2023-02-21T02:51:13.659Z,99796.41
2023-02-21T02:53:41.026Z,99792.59
2023-02-21T02:56:16.693Z,99797.16
2023-02-21T02:58:59.003Z,99794.44
2023-02-21T03:01:48.893Z,99786.94
2023-02-21T03:04:45.085Z,99792.22
2023-02-21T03:07:17.536Z,99785.41
2023-02-21T03:10:02.607Z,99795.09
2023-02-21T03:12:51.710Z,99779.59
2023-02-21T03:15:40.398Z,99765.81
2023-02-21T03:18:17.068Z,99782.88
2023-02-21T03:20:48.566Z,99790.25
2023-02-21T03:23:18.349Z,99781.81
2023-02-21T03:25:48.352Z,99787.78
2023-02-21T03:28:15.206Z,99786.50
2023-02-21T03:30:44.419Z,99804.03
2023-02-21T03:33:11.294Z,99801.47
2023-02-21T03:35:37.875Z,99803.81
2023-02-21T03:38:04.580Z,99802.13
2023-02-21T03:40:33.647Z,99792.38
2023-02-21T03:43:02.094Z,99792.38
2023-02-21T03:45:28.709Z,99788.81
2023-02-21T03:47:55.353Z,99792.06
2023-02-21T03:50:21.926Z,99797.47
2023-02-21T03:52:48.521Z,99788.41
2023-02-21T03:55:15.426Z,99784.00
2023-02-21T03:57:42.042Z,99793.34
2023-02-21T04:00:09.318Z,99788.63
2023-02-21T04:02:35.893Z,99785.28
2023-02-21T04:05:03.278Z,99776.88
2023-02-21T04:07:29.860Z,99786.03
2023-02-21T04:09:56.454Z,99787.22
2023-02-21T04:12:23.070Z,99786.47
2023-02-21T04:14:49.731Z,99785.75
2023-02-21T04:17:16.347Z,99788.69
2023-02-21T04:19:43.245Z,99780.28
2023-02-21T04:22:09.920Z,99787.50
2023-02-21T04:24:36.506Z,99784.53
2023-02-21T04:27:03.484Z,99779.06
2023-02-21T04:29:30.077Z,99772.63
2023-02-21T04:31:56.953Z,99768.03
2023-02-21T04:34:23.612Z,99770.53
2023-02-21T04:36:50.215Z,99774.84
2023-02-21T04:39:17.116Z,99783.59
2023-02-21T04:41:43.679Z,99774.75
2023-02-21T04:44:10.647Z,99763.91
2023-02-21T04:46:37.296Z,99764.81
2023-02-21T04:49:04.014Z,99770.31
2023-02-21T04:51:30.709Z,99776.62
2023-02-21T04:53:57.453Z,99779.37
2023-02-21T04:56:27.492Z,99788.44
2023-02-21T04:58:54.132Z,99787.56
2023-02-21T05:01:22.015Z,99788.16
2023-02-21T05:03:49.352Z,99780.81
2023-02-21T05:06:24.413Z,99784.91
2023-02-21T05:08:51.088Z,99796.31
2023-02-21T05:11:19.214Z,99799.62
2023-02-21T05:13:46.478Z,99797.97
2023-02-21T05:16:13.431Z,99797.44
2023-02-21T05:18:44.033Z,99783.78
2023-02-21T05:21:10.708Z,99790.88
2023-02-21T05:23:40.935Z,99794.13
2023-02-21T05:26:10.795Z,99800.91
2023-02-21T05:28:38.942Z,99801.47
2023-02-21T05:31:06.654Z,99792.44
2023-02-21T05:33:34.053Z,99792.41
2023-02-21T05:36:01.013Z,99788.59
2023-02-21T05:38:27.739Z,99781.53
2023-02-21T05:40:54.339Z,99778.53
2023-02-21T05:43:21.575Z,99785.06
2023-02-21T05:45:48.479Z,99779.37
2023-02-21T05:48:15.316Z,99773.94
2023-02-21T05:50:42.009Z,99777.16
2023-02-21T05:53:10.372Z,99768.72
2023-02-21T05:55:37.489Z,99775.25
2023-02-21T05:58:04.340Z,99773.34
2023-02-21T06:00:31.633Z,99765.97
2023-02-21T06:03:03.705Z,99780.16
2023-02-21T06:05:31.316Z,99772.16
2023-02-21T06:07:59.551Z,99779.31
2023-02-21T06:10:26.154Z,99777.31
2023-02-21T06:12:52.750Z,99776.22
2023-02-21T06:15:19.475Z,99776.53
2023-02-21T06:17:46.075Z,99771.13
2023-02-21T06:20:15.001Z,99772.31
2023-02-21T06:22:43.807Z,99772.16
2023-02-21T06:25:11.551Z,99770.47
2023-02-21T06:27:38.197Z,99775.59
2023-02-21T06:30:06.495Z,99777.81
2023-02-21T06:32:33.481Z,99775.84
2023-02-21T06:35:00.269Z,99781.22
2023-02-21T06:37:27.310Z,99783.34
2023-02-21T06:39:53.998Z,99787.22
2023-02-21T06:42:20.686Z,99795.50
2023-02-21T06:44:48.877Z,99791.91
2023-02-21T06:47:16.612Z,99798.34
2023-02-21T06:49:43.479Z,99795.84
2023-02-21T06:52:11.144Z,99798.56
2023-02-21T06:54:38.083Z,99804.13
2023-02-21T06:57:05.767Z,99808.69
2023-02-21T06:59:32.982Z,99809.87
2023-02-21T07:01:59.946Z,99812.22
2023-02-21T07:04:26.752Z,99812.97
2023-02-21T07:06:54.900Z,99802.37
2023-02-21T07:09:21.639Z,99806.53
2023-02-21T07:11:48.468Z,99804.59
2023-02-21T07:14:22.763Z,99809.09
2023-02-21T07:16:50.830Z,99805.41
2023-02-21T07:21:44.069Z,99817.69
2023-02-21T07:24:11.866Z,99816.97
2023-02-21T07:26:38.764Z,99829.12
2023-02-21T07:29:06.437Z,99828.38
2023-02-21T07:31:33.878Z,99828.66
2023-02-21T07:34:00.612Z,99819.03
2023-02-21T07:36:29.696Z,99813.62
2023-02-21T07:38:56.362Z,99819.97
2023-02-21T07:41:23.262Z,99827.06
2023-02-21T07:43:52.768Z,99826.25
2023-02-21T07:46:19.754Z,99822.47
2023-02-21T07:48:47.570Z,99808.09
2023-02-21T07:51:16.596Z,99802.75
2023-02-21T07:53:43.384Z,99819.97
2023-02-21T07:56:14.922Z,99803.50
2023-02-21T07:58:50.458Z,99815.31
2023-02-21T08:01:17.483Z,99819.06
2023-02-21T08:04:06.000Z,99807.62
2023-02-21T08:06:47.430Z,99810.53
2023-02-21T08:09:14.062Z,99813.97
2023-02-21T08:17:08.007Z,99813.62
2023-02-21T08:19:34.676Z,99810.31
2023-02-21T08:22:01.244Z,99820.00
2023-02-21T08:24:27.839Z,99825.41
2023-02-21T08:26:54.437Z,99832.53
2023-02-21T08:29:21.410Z,99834.03
2023-02-21T08:31:48.117Z,99834.59
2023-02-21T08:34:15.004Z,99819.06
2023-02-21T08:36:45.677Z,99819.22
2023-02-21T08:39:15.168Z,99815.38
2023-02-21T08:41:46.984Z,99807.78
2023-02-21T08:44:16.386Z,99811.50
2023-02-21T08:46:43.916Z,99812.91
2023-02-21T08:49:10.930Z,99813.00
2023-02-21T08:51:37.898Z,99809.31
2023-02-21T08:54:04.623Z,99811.16
2023-02-21T08:56:31.441Z,99801.63
2023-02-21T08:58:58.528Z,99810.66
2023-02-21T09:01:31.816Z,99803.75
2023-02-21T09:03:58.466Z,99799.06
2023-02-21T09:06:25.117Z,99790.97
2023-02-21T09:08:55.192Z,99799.91
2023-02-21T09:11:21.828Z,99800.41
2023-02-21T09:13:48.468Z,99784.66
2023-02-21T09:16:15.185Z,99787.63
2023-02-21T09:18:41.873Z,99788.25
2023-02-21T09:21:08.519Z,99806.78
2023-02-21T09:23:35.071Z,99801.66
2023-02-21T09:26:01.796Z,99794.72
2023-02-21T09:28:29.445Z,99795.63
2023-02-21T09:30:56.048Z,99791.44
2023-02-21T09:33:25.071Z,99789.69
2023-02-21T09:35:51.916Z,99791.34
2023-02-21T09:38:18.568Z,99780.81
2023-02-21T09:43:40.516Z,99784.22
2023-02-21T09:46:35.536Z,99781.56
2023-02-21T09:49:05.117Z,99789.91
2023-02-21T09:51:34.201Z,99795.41
2023-02-21T09:56:46.163Z,99795.41
2023-02-21T09:59:20.308Z,99794.53
2023-02-21T10:02:04.071Z,99789.44
2023-02-21T10:05:06.831Z,99797.34
2023-02-21T10:07:50.684Z,99792.09
2023-02-21T10:10:45.319Z,99786.22
2023-02-21T10:13:37.625Z,99785.91
2023-02-21T10:16:21.441Z,99798.41
2023-02-21T10:19:12.980Z,99807.97
2023-02-21T10:21:53.051Z,99799.47
2023-02-21T10:24:24.355Z,99798.78
2023-02-21T10:27:05.706Z,99791.91
2023-02-21T10:29:56.358Z,99788.41
2023-02-21T10:32:25.450Z,99787.94
2023-02-21T10:34:54.915Z,99787.84
2023-02-21T10:37:39.108Z,99797.16
2023-02-21T10:40:41.456Z,99796.16
2023-02-21T10:43:51.990Z,99788.88
2023-02-21T10:47:06.494Z,99788.47
2023-02-21T10:49:46.472Z,99789.63
2023-02-21T10:52:21.125Z,99793.47
2023-02-21T10:55:30.071Z,99793.81
2023-02-21T10:58:05.865Z,99787.31
2023-02-21T11:00:36.532Z,99780.16
2023-02-21T11:03:18.212Z,99798.03
2023-02-21T11:05:57.804Z,99802.13
2023-02-21T11:08:42.383Z,99797.06
2023-02-21T11:11:09.673Z,99790.69
2023-02-21T11:13:36.717Z,99798.59
2023-02-21T11:16:19.735Z,99806.31
2023-02-21T11:18:46.316Z,99785.91
2023-02-21T11:21:16.167Z,99790.31
2023-02-21T11:24:02.658Z,99787.22
2023-02-21T11:26:35.429Z,99779.44
2023-02-21T11:29:27.842Z,99777.84
2023-02-21T11:31:55.807Z,99790.91
2023-02-21T11:34:29.453Z,99775.44
2023-02-21T11:37:03.472Z,99776.16
2023-02-21T11:39:33.905Z,99783.03
2023-02-21T11:42:06.881Z,99774.53
2023-02-21T11:44:37.746Z,99770.69
2023-02-21T11:47:14.100Z,99770.22
2023-02-21T11:50:01.680Z,99779.16
2023-02-21T11:52:46.801Z,99758.38
2023-02-21T11:55:22.583Z,99780.19
2023-02-21T11:58:06.951Z,99781.72
2023-02-21T12:00:44.073Z,99779.84
2023-02-21T12:21:39.296Z,99776.28
2023-02-21T12:56:17.728Z,99778.50
2023-02-21T12:58:53.525Z,99769.22
2023-02-21T13:01:48.922Z,99775.47
2023-02-21T13:04:24.569Z,99779.78
2023-02-21T13:06:58.742Z,99783.28
2023-02-21T13:09:33.689Z,99768.53
2023-02-21T13:12:03.342Z,99772.19
2023-02-21T13:14:42.927Z,99776.41
2023-02-21T13:18:02.268Z,99787.16
2023-02-21T13:21:23.228Z,99780.09
2023-02-21T13:24:38.153Z,99775.84
2023-02-21T13:27:39.930Z,99780.22
2023-02-21T13:30:12.615Z,99777.53
2023-02-21T13:32:40.877Z,99772.47
2023-02-21T13:35:10.394Z,99774.19
2023-02-21T13:37:46.610Z,99775.41
2023-02-21T13:40:24.169Z,99767.13
2023-02-21T13:43:16.189Z,99761.72
2023-02-21T13:45:42.734Z,99770.50
2023-02-21T13:48:09.223Z,99759.13
2023-02-21T13:50:39.633Z,99757.75
2023-02-21T13:53:09.208Z,99771.53
2023-02-21T13:55:37.388Z,99757.94
2023-02-21T13:58:05.465Z,99764.34
2023-02-21T14:00:31.997Z,99770.13
2023-02-21T14:03:10.609Z,99770.72
2023-02-21T14:05:55.696Z,99766.84
2023-02-21T14:08:26.883Z,99765.69
2023-02-21T14:11:00.941Z,99765.50
2023-02-21T14:13:36.648Z,99773.28
2023-02-21T14:16:12.629Z,99762.81
2023-02-21T14:18:39.442Z,99769.50
2023-02-21T14:21:27.237Z,99765.56
2023-02-21T14:24:21.083Z,99775.38
2023-02-21T14:26:53.888Z,99765.25
2023-02-21T14:29:35.557Z,99761.88
2023-02-21T14:32:04.853Z,99763.44
2023-02-21T14:34:55.941Z,99752.94
2023-02-21T14:38:00.567Z,99762.59
2023-02-21T14:40:33.240Z,99759.56
2023-02-21T14:43:14.723Z,99762.72
2023-02-21T14:46:07.415Z,99766.97
2023-02-21T14:48:58.711Z,99765.06
2023-02-21T14:52:01.295Z,99764.84
2023-02-21T14:55:00.565Z,99762.78
2023-02-21T14:57:35.055Z,99769.38
2023-02-21T15:00:29.689Z,99774.28
2023-02-21T15:03:14.958Z,99766.22
2023-02-21T15:05:50.258Z,99762.00
2023-02-21T15:08:25.669Z,99771.53
2023-02-21T15:11:02.791Z,99773.88
2023-02-21T15:13:30.941Z,99776.59
2023-02-21T15:16:06.768Z,99780.06
2023-02-21T15:18:35.023Z,99789.78
2023-02-21T15:21:10.349Z,99781.84
2023-02-21T15:23:44.813Z,99785.47
2023-02-21T15:26:22.087Z,99780.50
2023-02-21T15:29:12.833Z,99779.06
2023-02-21T15:31:52.182Z,99777.72
2023-02-21T15:34:26.886Z,99776.38
2023-02-21T15:37:18.030Z,99765.53
2023-02-21T15:39:54.469Z,99768.31
2023-02-21T15:42:23.699Z,99763.38
2023-02-21T15:44:56.368Z,99763.53
2023-02-21T15:47:25.716Z,99763.72
2023-02-21T15:50:07.517Z,99768.81
2023-02-21T15:52:37.049Z,99777.53
2023-02-21T15:55:13.465Z,99774.19
2023-02-21T15:57:40.046Z,99777.25
2023-02-21T16:00:46.360Z,99781.00
2023-02-21T16:03:28.310Z,99779.47
2023-02-21T16:05:56.905Z,99787.03
2023-02-21T16:09:13.478Z,99790.72
2023-02-21T16:12:14.248Z,99794.09
2023-02-21T16:14:45.637Z,99797.94
2023-02-21T16:17:23.431Z,99797.97
2023-02-21T16:19:54.672Z,99801.84
2023-02-21T16:22:34.166Z,99799.38
2023-02-21T16:25:05.473Z,99810.66
2023-02-21T16:27:32.082Z,99812.28
2023-02-21T16:29:59.374Z,99812.41
2023-02-21T16:32:26.068Z,99811.78
2023-02-21T16:34:54.873Z,99815.66
2023-02-21T16:37:22.681Z,99810.97
2023-02-21T16:39:49.218Z,99820.53
2023-02-21T16:44:57.952Z,99815.75
2023-02-21T16:47:24.601Z,99824.06
2023-02-21T16:49:52.101Z,99828.00
2023-02-21T16:52:19.450Z,99833.78
2023-02-21T16:54:46.633Z,99824.94
2023-02-21T17:01:02.804Z,99835.84
2023-02-21T17:03:29.444Z,99836.03
2023-02-21T17:05:57.825Z,99837.66
2023-02-21T17:08:25.669Z,99833.09
2023-02-21T17:10:52.401Z,99833.22
2023-02-21T17:13:19.496Z,99840.94
2023-02-21T17:15:47.746Z,99837.50
2023-02-21T17:18:14.612Z,99840.75
2023-02-21T17:20:41.219Z,99841.44
2023-02-21T17:23:07.829Z,99841.87
2023-02-21T17:25:36.421Z,99854.78
2023-02-21T17:28:03.564Z,99847.38
2023-02-21T17:30:31.462Z,99844.81
2023-02-21T17:32:58.249Z,99850.06
2023-02-21T17:35:24.929Z,99845.97
2023-02-21T17:37:52.124Z,99848.50
2023-02-21T17:40:21.141Z,99848.66
2023-02-21T17:42:47.762Z,99852.78
2023-02-21T17:45:18.574Z,99849.09
2023-02-21T17:47:45.272Z,99855.53
2023-02-21T17:50:13.839Z,99854.81
2023-02-21T17:52:41.120Z,99852.12
2023-02-21T17:55:09.211Z,99854.72
2023-02-21T17:57:38.747Z,99854.25
2023-02-21T18:00:09.662Z,99860.97
2023-02-21T18:02:37.484Z,99864.78
2023-02-21T18:05:05.484Z,99858.22
2023-02-21T18:07:32.881Z,99854.50
2023-02-21T18:10:01.306Z,99854.38
2023-02-21T18:12:27.914Z,99847.75
2023-02-21T18:14:54.566Z,99846.81
2023-02-21T18:17:21.308Z,99848.75
2023-02-21T18:19:48.320Z,99838.91
2023-02-21T18:22:14.909Z,99833.13
2023-02-21T18:24:42.359Z,99834.28
2023-02-21T18:27:10.423Z,99830.97
2023-02-21T18:29:37.205Z,99837.03
2023-02-21T18:32:03.862Z,99839.63
2023-02-21T18:34:30.656Z,99845.69
2023-02-21T18:36:57.233Z,99844.44
2023-02-21T18:39:24.786Z,99841.81
2023-02-21T18:41:51.621Z,99836.19
2023-02-21T18:44:18.245Z,99837.81
2023-02-21T18:46:54.530Z,99842.16
2023-02-21T18:49:22.426Z,99846.06
2023-02-21T18:51:49.159Z,99841.97
2023-02-21T18:54:17.287Z,99844.78
2023-02-21T18:56:51.952Z,99856.47
2023-02-21T18:59:21.636Z,99835.47
2023-02-21T19:01:49.963Z,99840.63
2023-02-21T19:04:16.573Z,99837.06
2023-02-21T19:06:43.400Z,99836.59
2023-02-21T19:09:10.147Z,99841.56
2023-02-21T19:11:37.013Z,99843.19
2023-02-21T19:14:05.651Z,99843.50
2023-02-21T19:16:32.986Z,99845.69
2023-02-21T19:19:03.280Z,99846.78
2023-02-21T19:21:30.940Z,99850.84
2023-02-21T19:23:58.416Z,99857.34
2023-02-21T19:26:29.447Z,99852.16
2023-02-21T19:28:56.407Z,99854.41
2023-02-21T19:31:23.251Z,99856.03
2023-02-21T19:33:50.243Z,99850.31
2023-02-21T19:36:16.961Z,99849.00
2023-02-21T19:38:43.561Z,99844.34
2023-02-21T19:41:10.190Z,99848.50
2023-02-21T19:43:36.721Z,99844.47
2023-02-21T19:46:03.901Z,99846.06
2023-02-21T19:48:30.724Z,99842.00
2023-02-21T19:50:57.469Z,99849.63
2023-02-21T19:53:24.084Z,99846.69
2023-02-21T19:55:51.236Z,99847.78
2023-02-21T19:58:19.908Z,99849.97
2023-02-21T20:00:47.125Z,99857.88
2023-02-21T20:03:13.838Z,99860.03
2023-02-21T20:05:40.477Z,99857.28
2023-02-21T20:08:07.079Z,99860.81
2023-02-21T20:10:33.930Z,99861.09
2023-02-21T20:13:02.292Z,99859.75
2023-02-21T20:15:28.872Z,99858.13
2023-02-21T20:17:55.804Z,99854.88
2023-02-21T20:20:22.345Z,99852.66
2023-02-21T20:22:48.938Z,99856.22
2023-02-21T20:25:15.568Z,99856.22
2023-02-21T20:27:42.191Z,99843.13
2023-02-21T20:32:44.723Z,99859.44
2023-02-21T20:35:12.660Z,99849.81
2023-02-21T20:37:39.393Z,99857.25
2023-02-21T20:40:08.156Z,99851.22
2023-02-21T20:42:34.700Z,99862.31
2023-02-21T20:45:02.065Z,99860.75
2023-02-21T20:50:49.795Z,99869.16
2023-02-21T20:53:17.645Z,99866.81
2023-02-21T20:55:45.029Z,99874.22
2023-02-21T20:58:11.879Z,99877.78
2023-02-21T21:00:38.994Z,99876.38
2023-02-21T21:03:05.813Z,99884.00
2023-02-21T21:05:32.497Z,99879.34
2023-02-21T21:07:59.400Z,99879.34
2023-02-21T21:10:26.268Z,99890.03
2023-02-21T21:12:52.906Z,99889.22
2023-02-21T21:15:44.576Z,99889.56
2023-02-21T21:19:24.735Z,99885.22
2023-02-21T21:21:53.233Z,99885.53
2023-02-21T21:24:20.813Z,99888.28
2023-02-21T21:26:55.204Z,99889.13
2023-02-21T21:29:24.960Z,99886.97
2023-02-21T21:31:54.542Z,99889.44
2023-02-21T21:34:24.733Z,99885.09
2023-02-21T21:36:57.415Z,99882.09
2023-02-21T21:39:25.537Z,99890.81
2023-02-21T21:41:53.943Z,99886.72
2023-02-21T21:44:23.180Z,99881.53
2023-02-21T21:46:52.987Z,99885.88
2023-02-21T21:51:57.616Z,99882.88
2023-02-21T21:54:25.992Z,99885.03
2023-02-21T21:56:55.170Z,99889.13
2023-02-21T22:00:34.684Z,99889.69
2023-02-21T22:03:57.307Z,99881.81
2023-02-21T22:06:23.864Z,99883.47
2023-02-21T22:08:52.917Z,99882.38
2023-02-21T22:11:21.277Z,99880.19
2023-02-21T22:13:48.860Z,99884.81
2023-02-21T22:16:15.447Z,99881.53
2023-02-21T22:21:37.995Z,99880.44
2023-02-21T22:24:07.359Z,99885.28
2023-02-21T22:26:33.993Z,99877.13
2023-02-21T22:29:47.529Z,99887.50
2023-02-21T22:33:04.190Z,99889.09
2023-02-21T22:35:47.306Z,99881.44
2023-02-21T22:38:15.803Z,99882.25
2023-02-21T22:40:43.103Z,99887.97
2023-02-21T22:43:10.747Z,99878.97
2023-02-21T22:45:37.996Z,99887.44
2023-02-21T22:48:07.230Z,99890.12
2023-02-21T23:11:30.491Z,99886.94
2023-02-21T23:14:03.332Z,99899.66
2023-02-21T23:16:29.938Z,99903.22
2023-02-21T23:18:56.541Z,99898.31
2023-02-21T23:21:23.159Z,99890.19
2023-02-21T23:26:44.033Z,99885.50
2023-02-21T23:29:12.468Z,99890.41
2023-02-21T23:31:40.934Z,99899.19
2023-02-21T23:34:09.976Z,99890.47
2023-02-21T23:36:39.637Z,99902.44
2023-02-21T23:42:54.626Z,99900.50
2023-02-21T23:50:31.722Z,99888.84
